Aérodrome :
LOGIN :

S'inscrire | Disclaimer

   EN    FR    IT 

 










Légende :    VFR   VFR Marginal   IFR   IFR Intensif   IFR Très Intensif
Visi : 
Plafond : 
>= 8 km
>= 3000ft
5 à 8 km
1000 à 3000 ft
1500m à 5 km
500 à 1000 ft
800 à 1500m
200 à 500 ft
< 800m
< 200 ft
Symboles :   Orages  Brouillard  Fortes neiges  Fortes précipitations  Vent > 20 kt
SIGMETs :   Divers  Orages  Givrage  Turbulence  Onde Orograph.  Cendres Volcan.






- Altitude de l'aérodrome : 75 ft
- Code IATA : YEO


EGDY - RNAS Yeovilton

DERNIER METAR :
  • 110850Z 20007KT 9999 FEW020CB SCT160 05/03 Q1006 NOSIG RMK BLU BLU

METARs EXPIRÉS :
  • 110822Z 19006KT 9999 FEW018CB SCT070 05/03 Q1006 NOSIG RMK BLU BLU
  • 110750Z 20008KT 9999 FEW020 BKN120 05/03 Q1006 NOSIG RMK BLU BLU
  • 110720Z 20010KT 9999 FEW020 SCT080 05/03 Q1006 NOSIG RMK BLU BLU
  • 110650Z 20007KT 9999 FEW020 05/03 Q1007 BLU

TAF TAF EGDY
Valide du 11 à 09h jusqu'au 11 à 18h UTC


110805Z 1109/1118 20008KT 9999 FEW020
TEMPO 1111/1113 6000 SHRA BKN020TCU
PROB30
TEMPO 1111/1113 24010G25KT 5000 SHRAGS BKN018CB
BECMG 1112/1113 24010KT



MET'MAP, la Météo Aéronautique d'un coup d'oeil ! - Copyright ORBIFLY Décembre 2007 - Disclaimer

ORBIFLY MET'MAP TEAM :

Programmation & Développement : Alexandra Zaïnal
Sur une idée originale de : Baudouin d'Aumeries
Assistance à la programmation : Marc-Olivier Méhu
Soutien technique & logistique : Manuel Goepfert

Contact : metmap@orbifly.com




SOURCES & CREDITS :

   NOAA